Weather at The Palms At Kitty Hawk Airport

Public forecast

Using degrees Fahrenheit for public forecast. Weather courtesy of forecast.io.

Closest aviation weather report (METAR) to The Palms At Kitty Hawk Airport

Closest report is Lubbock Preston Smith International Airport, 18.3 nm (33.9 km) NNE. Retrieved 2020/12/02 00:53 UTC (44 minutes ago):

KLBB 020053Z 01017G25KT 10SM FEW250 10/M06 A2982 RMK AO2 PK WND 34026/0041 SLP090 T01001056

Closest aviation forecast (TAF) to The Palms At Kitty Hawk Airport

Closest forecast is Lubbock Preston Smith International Airport, 18.3 nm (33.9 km) NNE. Retrieved 2020-12-02 00:36 UTC (1 hour ago):

TAF KLBB 012334Z 0200/0224 34011KT P6SM SKC FM020200 35018KT P6SM FEW100 SCT250 FM021300 35023G33KT P6SM SCT025 BKN035 TEMPO 0215/0219 BKN025